Decoded Metar for KSIK ( in ) (IATA:) | Meteo·Mobile Aviation Weather
aviador You're here:

KSIK Decoded Metar

in
Report Time2018-09-22 07:35:00
UTC Time2018-09-22 09:23:45
Flight Rules Old
Wind030° at 07 kt
W.Decomp.*RWY 02: 6.9 kt HW 1.2 kt RCW
W.Rank030° ranks 16
Current wind is above 030° avg. (5.8)
Visibility9999 m
Phenomena:N/A
Clouds:Scattered 060 Hf
Scattered 075 Hf
Expected CloudBase > 2,800 ft AGL from Temp-Dew spread
CeilingNone
Temp21°C
Dew Point14°C (64% RH)
AAT19.7°C
QNH1020 hPa
Raw Report
KSIK 220735Z AUTO 03007KT 352V052 10SM SCT060 SCT075 21/14 A3013
RMK AO2=

Extra information for KSIK:More info

Social comments